TimeCDT,TemperatureF,Dew PointF,Humidity,Sea Level PressureIn,VisibilityMPH,Wind Direction,Wind SpeedMPH,Gust SpeedMPH,PrecipitationIn,Events,Conditions,WindDirDegrees,DateUTC
12:15 AM,75.2,66.2,73,29.97,10.0,NNE,8.1,-,0.00,,Clear,30,2013-07-12 05:15:00
12:35 AM,75.2,66.2,73,29.98,7.0,NNE,6.9,-,0.00,,Clear,30,2013-07-12 05:35:00
12:55 AM,73.4,66.2,78,29.98,8.0,NNE,9.2,-,0.00,,Clear,30,2013-07-12 05:55:00
1:15 AM,73.4,66.2,78,29.99,10.0,NNE,8.1,-,0.00,,Clear,30,2013-07-12 06:15:00
1:35 AM,73.4,66.2,78,29.99,10.0,NNE,8.1,-,0.00,,Clear,30,2013-07-12 06:35:00
1:55 AM,71.6,66.2,83,29.99,10.0,NNE,6.9,-,0.00,,Clear,30,2013-07-12 06:55:00
2:15 AM,71.6,64.4,78,29.98,10.0,NE,9.2,-,0.00,,Clear,40,2013-07-12 07:15:00
2:35 AM,71.6,64.4,78,29.98,10.0,NNE,6.9,-,0.00,,Clear,20,2013-07-12 07:35:00
2:55 AM,69.8,64.4,83,29.98,8.0,NNE,6.9,-,0.00,,Clear,30,2013-07-12 07:55:00
3:15 AM,69.8,64.4,83,29.98,10.0,NNE,8.1,-,0.00,,Clear,30,2013-07-12 08:15:00
3:35 AM,69.8,64.4,83,29.98,10.0,NNE,6.9,-,0.00,,Clear,30,2013-07-12 08:35:00
3:55 AM,68.0,64.4,88,29.98,10.0,NNE,6.9,-,0.00,,Clear,30,2013-07-12 08:55:00
4:15 AM,68.0,64.4,88,29.98,9.0,NNE,6.9,-,0.00,,Clear,30,2013-07-12 09:15:00
4:35 AM,66.2,64.4,94,29.98,10.0,NNE,6.9,-,0.00,,Clear,30,2013-07-12 09:35:00
4:55 AM,66.2,64.4,94,29.98,10.0,NNE,6.9,-,0.00,,Clear,30,2013-07-12 09:55:00
5:15 AM,66.2,62.6,88,29.99,10.0,NNE,6.9,-,0.00,,Clear,30,2013-07-12 10:15:00
5:35 AM,66.2,62.6,88,29.99,9.0,NNE,5.8,-,0.00,,Clear,30,2013-07-12 10:35:00
5:55 AM,64.4,62.6,94,30.00,10.0,NNE,5.8,-,0.00,,Clear,30,2013-07-12 10:55:00
6:15 AM,64.4,62.6,94,30.00,10.0,NNE,4.6,-,0.00,,Clear,20,2013-07-12 11:15:00
6:35 AM,64.4,62.6,94,30.01,10.0,NNE,5.8,-,0.00,,Clear,20,2013-07-12 11:35:00
6:50 AM,66.2,64.4,94,30.02,10.0,NNE,5.8,-,N/A,,Clear,30,2013-07-12 11:50:00
6:55 AM,64.4,62.6,94,30.01,8.0,NNE,5.8,-,0.00,,Clear,30,2013-07-12 11:55:00
7:15 AM,64.4,64.4,100,30.01,9.0,NNE,6.9,-,0.00,,Clear,20,2013-07-12 12:15:00
7:50 AM,69.8,64.4,83,30.04,10.0,NE,6.9,-,N/A,,Clear,40,2013-07-12 12:50:00
8:50 AM,73.4,66.2,78,30.05,10.0,North,9.2,-,N/A,,Clear,10,2013-07-12 13:50:00
10:50 AM,78.8,62.6,57,30.03,10.0,NNE,11.5,20.7,N/A,,Clear,30,2013-07-12 15:50:00
11:50 AM,80.6,62.6,54,30.02,10.0,NE,11.5,18.4,N/A,,Clear,40,2013-07-12 16:50:00
2:50 PM,84.2,64.4,51,29.99,10.0,NE,9.2,17.3,N/A,,Partly Cloudy,50,2013-07-12 19:50:00
3:50 PM,84.2,62.6,48,29.98,10.0,ENE,10.4,17.3,N/A,,Partly Cloudy,60,2013-07-12 20:50:00
4:50 PM,86.0,62.6,45,29.97,10.0,NE,8.1,-,N/A,,Clear,50,2013-07-12 21:50:00
5:50 PM,84.2,62.6,48,29.96,10.0,ENE,11.5,-,N/A,,Clear,60,2013-07-12 22:50:00
7:50 PM,80.6,62.6,54,29.98,10.0,NE,5.8,-,N/A,,Clear,40,2013-07-13 00:50:00
9:35 PM,77.0,64.4,65,29.99,10.0,NE,6.9,-,0.00,,Clear,40,2013-07-13 02:35:00
9:55 PM,75.2,64.4,69,29.99,9.0,NE,5.8,-,0.00,,Clear,50,2013-07-13 02:55:00
10:15 PM,75.2,64.4,69,30.00,10.0,NE,5.8,-,0.00,,Clear,50,2013-07-13 03:15:00
10:35 PM,73.4,64.4,73,30.01,9.0,NE,6.9,-,0.00,,Clear,50,2013-07-13 03:35:00
10:55 PM,73.4,64.4,73,30.01,9.0,NE,5.8,-,0.00,,Clear,50,2013-07-13 03:55:00
11:15 PM,73.4,64.4,73,30.01,8.0,NE,5.8,-,0.00,,Clear,50,2013-07-13 04:15:00
11:35 PM,73.4,62.6,69,30.01,10.0,NE,6.9,-,0.00,,Clear,50,2013-07-13 04:35:00
11:55 PM,73.4,62.6,69,30.01,8.0,NE,6.9,-,0.00,,Clear,40,2013-07-13 04:55:00